Monday, September 22, 2014
06:17 UTC
  |  Log In   |  Register Free
Airport Search:

Live Oak County Airport
(8T6)

Live Oak County Airport Diagram
No Airport Diagram Available

FAA data valid effective September 18, 2014 - November 13, 2014 (unless otherwise noted).

 
 
 
 
 
 
 
 
 
 
 
 
 
 

Current Aviation Weather for Live Oak County Airport (8T6)

METAR data is unavailable for 8T6. The nearest METAR location is at KBEA (17.2 nm SE from 8T6).

The most recent METAR observation for KBEA was updated at: 0607
METAR Summary (Translated METAR)
KBEA
220555Z AUTO 06004KT 10SM CLR 23/21 A3004 RMK AO2 T02270211 10301 20226 403380226
(17.2 nm SE from 8T6)
KNOG
220556Z AUTO 08004KT 10SM CLR 24/22 A3005 RMK AO2 SLP154 T02390222 10294 20239 403220239 50005 $
(27.9 nm SE from 8T6)
TAF Summary (Translated TAF)
KALI
(39.3 nm SW from KBEA)
211736Z 2118/2218 09015G20KT P6SM SCT030 FM220100 09007KT P6SM BKN100 FM221000 VRB03KT 4SM BR SKC FM221100 VRB03KT 2SM BR SCT001 FM221400 03007KT P6SM SKC
  Airport Weather Conditions for 8T6

Current weather conditions are
not available for 8T6


The nearest NOAA weather station
is at BEA, (17.2 nm SE from 8T6)
  
 Current Weather at BEA
74° F
Fair
East winds at 3.5 mph
BEA NOAA Radar

Pressure: 30.04 in
Humidity: 84%
Wind: East at 3.5 MPH (3 KT)
Dew Point: 69.1°F
Visibility: 10.00 mi


Airport Weather Forecast for 8T6

Translated METAR and TAF for KBEA
Translated METAR for KBEA (0612 UTC 22 September 2014)
found at http://aviationweather.gov/adds/metars/
 
METAR text: KBEA 220555Z AUTO 06004KT 10SM CLR 23/21 A3004 RMK AO2 T02270211 10301 20226 403380226
Conditions at: KBEA (BEEVILLE MUNI , TX, US) observed 0555 UTC 22 September 2014
Temperature: 22.7°C (73°F)
Dewpoint: 21.1°C (70°F) [RH = 91%]
Pressure (altimeter): 30.04 inches Hg (1017.4 mb)
Winds: from the ENE (60 degrees) at 5 MPH (4 knots; 2.1 m/s)
Visibility: 10 or more miles (16+ km)
Ceiling: at least 12,000 feet AGL
Clouds: sky clear below 12,000 feet AGL
Weather: automated observation with no human augmentation;
there may or may not be significant weather present at this time
Translated TAF for KBEA

There is no translated TAF available for this airport

Find All Airport Services Find A Hotel Find A Rental Car Find A Golf Course Find A Restaurant $100 Hamburger



FBO's on the Field
FBO Company Facility Photos Services Transportation Aviation Fuel Prices: Prices include tax
Catering Weather Repair Courtesy Rental Type 100LL JetA JetA+ MOGAS 8087
 
Live Oak Co. Airport

This FBO has not yet been rated
FS:Avfuel
Last Updated: Sep-08
Login to update fuel prices
SS:
Contact Live Oak Co. AirportMore FBO Information
 
Add another FBO Facility Photos Catering Weather Repair Courtesy Rental Type 100LL JetA JetA+ MOGAS 8087
Services Transportation Aviation Fuel Prices: Prices include tax


model-print
model-print
model-print
model-print